createdAt,value
2023-05-09T00:02:13.376Z,13.20
2023-05-09T00:04:40.690Z,13.20
2023-05-09T00:07:08.211Z,13.20
2023-05-09T00:09:35.512Z,13.20
2023-05-09T00:12:02.859Z,13.20
2023-05-09T00:14:30.721Z,13.20
2023-05-09T00:16:59.380Z,13.30
2023-05-09T00:19:26.415Z,13.30
2023-05-09T00:21:54.656Z,13.30
2023-05-09T00:24:21.652Z,13.30
2023-05-09T00:26:48.786Z,13.40
2023-05-09T00:29:15.745Z,13.30
2023-05-09T00:31:42.772Z,13.40
2023-05-09T00:34:10.218Z,13.40
2023-05-09T00:36:37.295Z,13.40
2023-05-09T00:39:05.834Z,13.30
2023-05-09T00:41:33.243Z,13.30
2023-05-09T00:44:00.470Z,13.30
2023-05-09T00:46:27.956Z,13.30
2023-05-09T00:48:56.196Z,13.30
2023-05-09T00:51:24.197Z,13.30
2023-05-09T00:53:51.514Z,13.30
2023-05-09T00:56:18.946Z,13.20
2023-05-09T00:58:46.048Z,13.20
2023-05-09T01:01:13.300Z,13.20
2023-05-09T01:03:43.027Z,13.30
2023-05-09T01:06:22.805Z,13.30
2023-05-09T01:09:17.229Z,13.30
2023-05-09T01:12:19.324Z,13.20
2023-05-09T01:14:52.687Z,13.20
2023-05-09T01:17:33.775Z,13.20
2023-05-09T01:20:08.819Z,13.20
2023-05-09T01:22:38.215Z,13.20
2023-05-09T01:25:29.518Z,13.20
2023-05-09T01:28:10.577Z,13.10
2023-05-09T01:30:38.430Z,13.10
2023-05-09T01:33:08.346Z,13.00
2023-05-09T01:35:39.889Z,12.90
2023-05-09T01:38:12.954Z,12.90
2023-05-09T01:40:42.307Z,12.90
2023-05-09T01:43:11.622Z,12.90
2023-05-09T01:45:40.183Z,12.80
2023-05-09T01:48:09.676Z,12.80
2023-05-09T01:50:37.578Z,12.70
2023-05-09T01:53:06.678Z,12.70
2023-05-09T01:55:36.975Z,12.60
2023-05-09T01:58:05.799Z,12.60
2023-05-09T02:00:35.295Z,12.50
2023-05-09T02:03:04.096Z,12.40
2023-05-09T02:05:33.164Z,12.40
2023-05-09T02:08:00.709Z,12.30
2023-05-09T02:10:28.947Z,12.20
2023-05-09T02:12:57.429Z,12.10
2023-05-09T02:15:25.996Z,12.10
2023-05-09T02:17:53.525Z,12.10
2023-05-09T02:20:20.681Z,12.10
2023-05-09T02:22:48.517Z,12.10
2023-05-09T02:25:16.065Z,12.00
2023-05-09T02:27:47.884Z,12.00
2023-05-09T02:30:20.808Z,12.00
2023-05-09T02:32:50.671Z,12.00
2023-05-09T02:35:18.464Z,12.00
2023-05-09T02:37:47.458Z,12.10
2023-05-09T02:40:15.020Z,12.20
2023-05-09T02:42:42.256Z,12.30
2023-05-09T02:45:10.710Z,12.30
2023-05-09T02:47:38.723Z,12.40
2023-05-09T02:50:06.780Z,12.40
2023-05-09T02:52:33.740Z,12.50
2023-05-09T02:55:00.684Z,12.50
2023-05-09T02:57:28.133Z,12.50
2023-05-09T02:59:55.076Z,12.50
2023-05-09T03:02:24.130Z,12.50
2023-05-09T03:04:51.881Z,12.50
2023-05-09T03:07:19.716Z,12.40
2023-05-09T03:09:46.643Z,12.40
2023-05-09T03:12:13.690Z,12.40
2023-05-09T03:14:40.788Z,12.40
2023-05-09T03:17:10.625Z,12.40
2023-05-09T03:19:37.559Z,12.30
2023-05-09T03:22:04.500Z,12.30
2023-05-09T03:24:31.531Z,12.20
2023-05-09T03:26:58.521Z,12.20
2023-05-09T03:29:26.019Z,12.20
2023-05-09T03:31:53.168Z,12.20
2023-05-09T03:34:20.488Z,12.20
2023-05-09T03:36:47.700Z,12.20
2023-05-09T03:39:14.807Z,12.20
2023-05-09T03:41:43.675Z,12.20
2023-05-09T03:44:10.934Z,12.20
2023-05-09T03:46:38.071Z,12.20
2023-05-09T03:49:08.040Z,12.20
2023-05-09T03:51:35.163Z,12.10
2023-05-09T03:54:02.228Z,12.10
2023-05-09T03:56:29.178Z,12.10
2023-05-09T03:58:56.096Z,12.10
2023-05-09T04:01:23.424Z,12.10
2023-05-09T04:03:52.213Z,12.00
2023-05-09T04:06:19.889Z,12.10
2023-05-09T04:08:47.175Z,12.10
2023-05-09T04:11:14.153Z,12.10
2023-05-09T04:13:41.248Z,12.10
2023-05-09T04:16:08.501Z,12.20
2023-05-09T04:18:36.670Z,12.10
2023-05-09T04:21:04.240Z,12.20
2023-05-09T04:23:32.530Z,12.30
2023-05-09T04:26:00.177Z,12.30
2023-05-09T04:28:27.627Z,12.40
2023-05-09T04:30:54.774Z,12.50
2023-05-09T04:33:22.515Z,12.60
2023-05-09T04:35:49.508Z,12.60
2023-05-09T04:38:16.796Z,12.60
2023-05-09T04:40:43.915Z,12.70
2023-05-09T04:43:11.513Z,13.20
2023-05-09T04:45:38.576Z,13.70
2023-05-09T04:48:05.885Z,14.30
2023-05-09T04:50:32.988Z,14.90
2023-05-09T04:52:59.992Z,15.30
2023-05-09T04:55:26.892Z,15.70
2023-05-09T04:57:53.950Z,16.20
2023-05-09T05:00:21.390Z,16.70
2023-05-09T05:02:48.455Z,17.30
2023-05-09T05:05:15.475Z,17.80
2023-05-09T05:07:42.990Z,18.30
2023-05-09T05:10:10.556Z,18.70
2023-05-09T05:12:37.549Z,19.20
2023-05-09T05:15:05.229Z,19.60
2023-05-09T05:17:32.183Z,19.50
2023-05-09T05:19:59.418Z,19.20
2023-05-09T05:22:26.341Z,19.00
2023-05-09T05:24:56.326Z,18.90
2023-05-09T05:27:23.568Z,18.90
2023-05-09T05:29:50.544Z,19.10
2023-05-09T05:32:17.724Z,19.30
2023-05-09T05:34:44.732Z,19.20
2023-05-09T05:37:11.853Z,18.80
2023-05-09T05:39:39.326Z,18.50
2023-05-09T05:42:06.604Z,18.10
2023-05-09T05:44:33.512Z,17.50
2023-05-09T05:47:00.462Z,17.20
2023-05-09T05:49:27.403Z,16.90
2023-05-09T05:51:54.888Z,16.70
2023-05-09T05:54:22.547Z,16.50
2023-05-09T05:56:49.509Z,16.50
2023-05-09T05:59:16.373Z,16.30
2023-05-09T06:01:43.645Z,16.30
2023-05-09T06:04:10.991Z,16.10
2023-05-09T06:06:38.079Z,16.10
2023-05-09T06:09:05.285Z,16.10
2023-05-09T06:11:32.270Z,16.10
2023-05-09T06:13:59.230Z,16.10
2023-05-09T06:16:26.259Z,16.00
2023-05-09T06:18:55.934Z,16.00
2023-05-09T06:21:23.865Z,16.20
2023-05-09T06:24:07.761Z,16.30
2023-05-09T06:26:37.893Z,16.30
2023-05-09T06:29:08.983Z,16.40
2023-05-09T06:31:39.194Z,16.50
2023-05-09T06:34:07.168Z,16.50
2023-05-09T06:36:35.198Z,16.80
2023-05-09T06:39:03.251Z,17.10
2023-05-09T06:41:30.667Z,17.50
2023-05-09T06:43:58.385Z,18.20
2023-05-09T06:46:25.513Z,18.90
2023-05-09T06:48:52.968Z,19.90
2023-05-09T06:51:20.481Z,20.40
2023-05-09T06:53:47.780Z,21.10
2023-05-09T06:56:15.046Z,21.50
2023-05-09T06:58:41.931Z,22.00
2023-05-09T07:01:09.095Z,22.40
2023-05-09T07:03:36.196Z,22.50
2023-05-09T07:06:03.080Z,22.30
2023-05-09T07:08:30.084Z,22.30
2023-05-09T07:10:57.124Z,22.30
2023-05-09T07:13:25.510Z,22.10
2023-05-09T07:15:52.802Z,22.00
2023-05-09T07:18:19.917Z,21.70
2023-05-09T07:20:46.974Z,21.40
2023-05-09T07:23:16.201Z,21.60
2023-05-09T07:25:45.314Z,22.00
2023-05-09T07:28:13.040Z,22.20
2023-05-09T07:30:40.028Z,22.40
2023-05-09T07:33:07.780Z,22.70
2023-05-09T07:35:34.935Z,23.10
2023-05-09T07:38:02.031Z,23.40
2023-05-09T07:40:29.943Z,23.60
2023-05-09T07:42:56.993Z,23.70
2023-05-09T07:45:24.913Z,24.20
2023-05-09T07:47:52.239Z,24.70
2023-05-09T07:50:19.554Z,24.60
2023-05-09T07:52:46.833Z,24.20
2023-05-09T07:55:14.147Z,23.90
2023-05-09T07:57:41.530Z,23.80
2023-05-09T08:00:10.569Z,23.60
2023-05-09T08:02:37.703Z,23.60
2023-05-09T08:05:05.123Z,23.60
2023-05-09T08:07:32.234Z,23.60
2023-05-09T08:09:59.487Z,24.00
2023-05-09T08:12:26.764Z,24.30
2023-05-09T08:14:54.010Z,24.50
2023-05-09T08:17:21.033Z,24.50
2023-05-09T08:19:48.899Z,24.70
2023-05-09T08:22:20.698Z,25.00
2023-05-09T08:24:48.161Z,24.90
2023-05-09T08:27:15.911Z,25.10
2023-05-09T08:29:43.731Z,25.20
2023-05-09T08:32:10.991Z,25.10
2023-05-09T08:34:38.680Z,24.90
2023-05-09T08:37:05.875Z,24.90
2023-05-09T08:39:35.353Z,24.60
2023-05-09T08:42:03.016Z,24.50
2023-05-09T08:44:31.618Z,24.30
2023-05-09T08:47:03.852Z,24.10
2023-05-09T08:49:31.385Z,23.90
2023-05-09T08:51:59.559Z,24.00
2023-05-09T08:54:27.649Z,24.00
2023-05-09T08:56:54.753Z,23.50
2023-05-09T08:59:22.679Z,23.50
2023-05-09T09:01:50.306Z,23.70
2023-05-09T09:04:18.200Z,24.00
2023-05-09T09:06:46.558Z,24.00
2023-05-09T09:09:15.090Z,23.80
2023-05-09T09:11:42.969Z,24.10
2023-05-09T09:14:17.051Z,23.90
2023-05-09T09:16:56.480Z,24.40
2023-05-09T09:19:31.126Z,24.70
2023-05-09T09:22:01.146Z,24.90
2023-05-09T09:24:28.404Z,25.00
2023-05-09T09:26:55.874Z,25.10
2023-05-09T09:29:23.298Z,25.30
2023-05-09T09:31:55.139Z,25.50
2023-05-09T09:34:23.909Z,25.40
2023-05-09T09:36:51.193Z,25.50
2023-05-09T09:39:19.688Z,25.60
2023-05-09T09:41:46.906Z,25.60
2023-05-09T09:44:16.051Z,25.40
2023-05-09T09:46:55.216Z,24.90
2023-05-09T09:49:24.156Z,24.80
2023-05-09T09:51:53.132Z,24.80
2023-05-09T09:54:21.012Z,25.00
2023-05-09T09:56:54.664Z,24.80
2023-05-09T09:59:25.118Z,24.50
2023-05-09T10:01:55.682Z,24.20
2023-05-09T10:04:24.145Z,23.80
2023-05-09T10:06:56.693Z,23.70
2023-05-09T10:09:24.794Z,23.80
2023-05-09T10:11:53.327Z,24.00
2023-05-09T10:14:26.404Z,23.80
2023-05-09T10:16:59.386Z,23.80
2023-05-09T10:19:29.797Z,23.80
2023-05-09T10:21:59.432Z,23.60
2023-05-09T10:24:39.021Z,23.40
2023-05-09T10:27:21.449Z,22.90
2023-05-09T10:30:12.781Z,22.70
2023-05-09T10:33:13.523Z,22.50
2023-05-09T10:35:43.875Z,22.50
2023-05-09T10:38:13.204Z,22.30
2023-05-09T10:40:47.020Z,22.10
2023-05-09T10:43:15.379Z,22.30
2023-05-09T10:45:43.306Z,22.40
2023-05-09T10:48:11.612Z,22.50
2023-05-09T10:50:40.577Z,22.60
2023-05-09T10:53:11.593Z,22.50
2023-05-09T10:55:48.071Z,22.40
2023-05-09T10:58:23.361Z,22.30
2023-05-09T11:00:51.765Z,22.30
2023-05-09T11:03:19.696Z,22.20
2023-05-09T11:05:48.978Z,22.30
2023-05-09T11:08:23.252Z,22.40
2023-05-09T11:10:50.901Z,22.40
2023-05-09T11:13:24.600Z,22.60
2023-05-09T11:16:01.030Z,22.60
2023-05-09T11:18:35.497Z,22.60
2023-05-09T11:21:12.152Z,22.50
2023-05-09T11:23:39.603Z,22.50
2023-05-09T11:26:10.141Z,22.80
2023-05-09T11:28:38.786Z,23.00
2023-05-09T11:31:10.195Z,23.00
2023-05-09T11:33:38.762Z,23.10
2023-05-09T11:36:17.863Z,23.10
2023-05-09T11:38:46.458Z,23.20
2023-05-09T11:41:13.972Z,23.50
2023-05-09T11:43:43.144Z,23.90
2023-05-09T11:46:10.550Z,23.90
2023-05-09T11:48:42.587Z,23.90
2023-05-09T11:51:18.424Z,23.90
2023-05-09T11:53:50.771Z,24.00
2023-05-09T11:56:18.101Z,24.00
2023-05-09T11:58:47.202Z,23.90
2023-05-09T12:01:18.557Z,23.60
2023-05-09T12:03:46.154Z,23.80
2023-05-09T12:06:18.478Z,23.50
2023-05-09T12:08:47.553Z,23.50
2023-05-09T12:11:15.833Z,23.40
2023-05-09T12:13:51.023Z,23.40
2023-05-09T12:16:22.853Z,23.30
2023-05-09T12:18:53.588Z,23.50
2023-05-09T12:21:22.135Z,23.30
2023-05-09T12:23:51.823Z,23.40
2023-05-09T12:26:22.769Z,23.40
2023-05-09T12:28:50.918Z,23.40
2023-05-09T12:31:18.737Z,23.20
2023-05-09T12:33:46.033Z,23.30
2023-05-09T12:36:15.860Z,23.30
2023-05-09T12:38:53.648Z,23.30
2023-05-09T12:41:34.806Z,23.50
2023-05-09T12:44:04.749Z,23.40
2023-05-09T12:46:34.567Z,23.60
2023-05-09T12:49:02.978Z,23.90
2023-05-09T12:51:30.299Z,23.80
2023-05-09T12:54:04.757Z,23.70
2023-05-09T12:56:35.855Z,23.80
2023-05-09T12:59:03.041Z,23.90
2023-05-09T13:01:30.555Z,23.70
2023-05-09T13:04:06.500Z,23.60
2023-05-09T13:06:36.131Z,23.40
2023-05-09T13:09:08.589Z,23.50
2023-05-09T13:11:38.096Z,23.90
2023-05-09T13:14:05.488Z,24.30
2023-05-09T13:16:32.646Z,24.60
2023-05-09T13:19:01.615Z,24.50
2023-05-09T13:21:28.762Z,24.80
2023-05-09T13:23:55.849Z,24.50
2023-05-09T13:26:23.213Z,24.30
2023-05-09T13:28:51.755Z,24.20
2023-05-09T13:31:19.414Z,24.10
2023-05-09T13:33:48.092Z,24.00
2023-05-09T13:36:16.886Z,23.90
2023-05-09T13:38:45.758Z,23.90
2023-05-09T13:41:19.849Z,23.80
2023-05-09T13:43:47.068Z,23.70
2023-05-09T13:46:14.326Z,23.70
2023-05-09T13:48:42.039Z,23.70
2023-05-09T13:51:10.008Z,23.70
2023-05-09T13:53:38.852Z,23.50
2023-05-09T13:56:07.877Z,23.50
2023-05-09T13:58:35.041Z,23.50
2023-05-09T14:01:02.783Z,23.30
2023-05-09T14:03:30.139Z,23.20
2023-05-09T14:05:58.228Z,23.20
2023-05-09T14:08:25.583Z,23.00
2023-05-09T14:10:52.672Z,22.90
2023-05-09T14:13:19.713Z,22.90
2023-05-09T14:15:47.201Z,23.10
2023-05-09T14:18:17.753Z,23.10
2023-05-09T14:20:46.484Z,23.10
2023-05-09T14:23:13.936Z,23.10
2023-05-09T14:25:40.996Z,23.10
2023-05-09T14:28:09.668Z,23.10
2023-05-09T14:30:37.122Z,23.10
2023-05-09T14:33:05.004Z,23.30
2023-05-09T14:35:34.209Z,23.40
2023-05-09T14:38:01.751Z,23.30
2023-05-09T14:40:32.853Z,23.20
2023-05-09T14:43:02.999Z,23.20
2023-05-09T14:45:31.445Z,23.20
2023-05-09T14:48:03.665Z,23.20
2023-05-09T14:50:30.875Z,23.10
2023-05-09T14:52:57.891Z,22.90
2023-05-09T14:55:26.939Z,22.70
2023-05-09T14:57:54.106Z,22.70
2023-05-09T15:00:22.593Z,22.60
2023-05-09T15:02:50.590Z,22.50
2023-05-09T15:05:18.399Z,22.50
2023-05-09T15:07:46.402Z,22.50
2023-05-09T15:10:14.080Z,22.50
2023-05-09T15:12:41.466Z,22.50
2023-05-09T15:15:25.278Z,22.50
2023-05-09T15:17:53.192Z,22.50
2023-05-09T15:20:20.439Z,22.60
2023-05-09T15:22:49.827Z,22.60
2023-05-09T15:25:17.584Z,22.60
2023-05-09T15:27:45.767Z,22.60
2023-05-09T15:30:13.480Z,22.50
2023-05-09T15:32:41.206Z,22.50
2023-05-09T15:35:08.852Z,22.50
2023-05-09T15:37:36.510Z,22.50
2023-05-09T15:40:04.629Z,22.50
2023-05-09T15:42:31.808Z,22.40
2023-05-09T15:44:58.850Z,22.30
2023-05-09T15:47:25.938Z,22.30
2023-05-09T15:49:53.491Z,22.30
2023-05-09T15:52:21.549Z,22.20
2023-05-09T15:54:48.666Z,22.20
2023-05-09T15:57:16.906Z,22.10
2023-05-09T15:59:43.998Z,22.10
2023-05-09T16:02:12.863Z,22.10
2023-05-09T16:04:39.897Z,22.00
2023-05-09T16:07:08.721Z,21.90
2023-05-09T16:09:37.455Z,21.80
2023-05-09T16:12:04.840Z,21.90
2023-05-09T16:14:32.211Z,21.80
2023-05-09T16:16:59.815Z,21.80
2023-05-09T16:19:27.029Z,21.80
2023-05-09T16:21:53.956Z,21.80
2023-05-09T16:24:20.915Z,21.80
2023-05-09T16:26:48.471Z,21.80
2023-05-09T16:29:16.034Z,21.80
2023-05-09T16:31:45.200Z,21.70
2023-05-09T16:34:12.525Z,21.70
2023-05-09T16:36:40.057Z,21.60
2023-05-09T16:39:07.681Z,21.60
2023-05-09T16:41:34.899Z,21.50
2023-05-09T16:44:02.258Z,21.50
2023-05-09T16:46:29.413Z,21.50
2023-05-09T16:48:56.881Z,21.50
2023-05-09T16:51:24.087Z,21.50
2023-05-09T16:53:51.279Z,21.40
2023-05-09T16:59:05.024Z,21.40
2023-05-09T17:01:32.517Z,21.30
2023-05-09T17:04:01.712Z,21.30
2023-05-09T17:06:28.839Z,21.30
2023-05-09T17:08:55.950Z,21.20
2023-05-09T17:11:23.568Z,21.00
2023-05-09T17:13:51.182Z,21.20
2023-05-09T17:16:18.684Z,21.10
2023-05-09T17:18:47.571Z,21.10
2023-05-09T17:21:16.009Z,21.00
2023-05-09T17:23:43.581Z,21.00
2023-05-09T17:26:10.644Z,21.00
2023-05-09T17:28:37.886Z,21.00
2023-05-09T17:31:05.186Z,21.00
2023-05-09T17:33:32.385Z,20.90
2023-05-09T17:36:00.552Z,20.90
2023-05-09T17:38:27.776Z,20.90
2023-05-09T17:40:54.959Z,20.80
2023-05-09T17:43:24.460Z,20.80
2023-05-09T17:45:52.695Z,20.80
2023-05-09T17:48:21.784Z,20.80
2023-05-09T17:50:50.324Z,20.80
2023-05-09T17:53:18.325Z,20.70
2023-05-09T17:55:45.632Z,20.70
2023-05-09T17:58:14.271Z,20.70
2023-05-09T18:00:41.867Z,20.70
2023-05-09T18:03:09.425Z,20.60
2023-05-09T18:05:36.934Z,20.60
2023-05-09T18:08:04.414Z,20.50
2023-05-09T18:10:32.321Z,20.50
2023-05-09T18:13:00.824Z,20.50
2023-05-09T18:15:28.670Z,20.40
2023-05-09T18:17:58.453Z,20.40
2023-05-09T18:20:26.158Z,20.40
2023-05-09T18:22:54.593Z,20.30
2023-05-09T18:25:22.247Z,20.30
2023-05-09T18:27:49.561Z,20.20
2023-05-09T18:30:17.419Z,20.20
2023-05-09T18:32:45.318Z,20.20
2023-05-09T18:35:12.922Z,20.10
2023-05-09T18:37:45.358Z,20.10
2023-05-09T18:40:15.908Z,20.00
2023-05-09T18:42:43.751Z,20.00
2023-05-09T18:45:12.213Z,19.90
2023-05-09T18:47:39.476Z,19.90
2023-05-09T18:50:08.069Z,19.80
2023-05-09T18:52:35.357Z,19.80
2023-05-09T18:55:02.742Z,19.70
2023-05-09T18:57:30.030Z,19.70
2023-05-09T18:59:57.547Z,19.60
2023-05-09T19:02:25.202Z,19.40
2023-05-09T19:04:52.706Z,19.20
2023-05-09T19:07:22.229Z,19.10
2023-05-09T19:09:51.715Z,18.90
2023-05-09T19:12:20.184Z,18.70
2023-05-09T19:14:47.657Z,18.60
2023-05-09T19:17:14.872Z,18.40
2023-05-09T19:19:42.834Z,18.30
2023-05-09T19:22:14.072Z,18.20
2023-05-09T19:24:41.996Z,18.10
2023-05-09T19:27:09.512Z,18.00
2023-05-09T19:29:36.960Z,17.80
2023-05-09T19:32:05.435Z,17.60
2023-05-09T19:34:32.938Z,17.50
2023-05-09T19:37:00.165Z,17.50
2023-05-09T19:39:29.223Z,17.50
2023-05-09T19:41:58.343Z,17.50
2023-05-09T19:44:28.084Z,17.40
2023-05-09T19:46:58.831Z,17.40
2023-05-09T19:49:28.227Z,17.40
2023-05-09T19:52:02.492Z,17.40
2023-05-09T19:54:30.677Z,17.40
2023-05-09T19:56:58.620Z,17.20
2023-05-09T19:59:27.296Z,17.20
2023-05-09T20:01:54.626Z,17.00
2023-05-09T20:04:22.870Z,17.20
2023-05-09T20:06:53.208Z,17.10
2023-05-09T20:09:24.073Z,17.10
2023-05-09T20:11:53.210Z,17.10
2023-05-09T20:14:23.052Z,17.10
2023-05-09T20:16:51.251Z,17.10
2023-05-09T20:19:19.888Z,17.00
2023-05-09T20:21:48.851Z,17.00
2023-05-09T20:24:17.002Z,17.00
2023-05-09T20:26:44.543Z,17.00
2023-05-09T20:29:12.164Z,17.00
2023-05-09T20:31:39.797Z,16.90
2023-05-09T20:34:10.963Z,16.90
2023-05-09T20:36:39.553Z,16.90
2023-05-09T20:39:06.821Z,16.80
2023-05-09T20:41:35.333Z,16.80
2023-05-09T20:44:04.843Z,16.80
2023-05-09T20:46:32.502Z,16.80
2023-05-09T20:48:59.863Z,16.80
2023-05-09T20:51:28.093Z,16.80
2023-05-09T20:53:56.480Z,16.80
2023-05-09T20:56:23.743Z,16.80
2023-05-09T20:58:51.405Z,16.80
2023-05-09T21:01:19.432Z,16.70
2023-05-09T21:03:47.454Z,16.70
2023-05-09T21:06:14.870Z,16.60
2023-05-09T21:08:42.593Z,16.60
2023-05-09T21:11:10.118Z,16.50
2023-05-09T21:13:37.580Z,16.50
2023-05-09T21:16:05.225Z,16.50
2023-05-09T21:18:33.124Z,16.40
2023-05-09T21:21:05.999Z,16.40
2023-05-09T21:23:33.367Z,16.40
2023-05-09T21:26:02.429Z,16.40
2023-05-09T21:28:29.765Z,16.30
2023-05-09T21:30:57.031Z,16.30
2023-05-09T21:33:24.036Z,16.30
2023-05-09T21:35:51.197Z,16.30
2023-05-09T21:38:18.550Z,16.30
2023-05-09T21:40:45.973Z,16.30
2023-05-09T21:43:13.101Z,16.20
2023-05-09T21:45:40.198Z,16.20
2023-05-09T21:48:07.933Z,16.20
2023-05-09T21:50:35.197Z,16.20
2023-05-09T21:53:02.211Z,16.20
2023-05-09T21:55:29.549Z,16.10
2023-05-09T21:57:56.509Z,16.20
2023-05-09T22:00:23.941Z,16.10
2023-05-09T22:02:51.056Z,16.10
2023-05-09T22:05:18.974Z,16.10
2023-05-09T22:07:46.372Z,16.10
2023-05-09T22:10:13.505Z,16.00
2023-05-09T22:12:40.779Z,16.00
2023-05-09T22:15:08.841Z,15.90
2023-05-09T22:17:36.123Z,15.80
2023-05-09T22:20:04.046Z,15.80
2023-05-09T22:22:32.038Z,15.80
2023-05-09T22:24:59.156Z,15.80
2023-05-09T22:27:26.899Z,15.80
2023-05-09T22:29:55.548Z,15.80
2023-05-09T22:32:22.532Z,15.80
2023-05-09T22:34:49.657Z,15.80
2023-05-09T22:37:16.977Z,15.80
2023-05-09T22:39:44.315Z,15.80
2023-05-09T22:42:11.491Z,15.80
2023-05-09T22:44:40.700Z,15.70
2023-05-09T22:47:08.835Z,15.70
2023-05-09T22:49:36.331Z,15.70
2023-05-09T22:52:03.656Z,15.70
2023-05-09T22:54:30.725Z,15.70
2023-05-09T22:56:57.725Z,15.70
2023-05-09T22:59:25.048Z,15.70
2023-05-09T23:01:53.634Z,15.70
2023-05-09T23:04:20.829Z,15.70
2023-05-09T23:06:48.372Z,15.70
2023-05-09T23:09:15.407Z,15.60
2023-05-09T23:11:42.491Z,15.60
2023-05-09T23:14:10.977Z,15.60
2023-05-09T23:16:37.951Z,15.60
2023-05-09T23:19:05.054Z,15.60
2023-05-09T23:21:33.107Z,15.60
2023-05-09T23:24:00.706Z,15.70
2023-05-09T23:26:30.733Z,15.70
2023-05-09T23:29:00.027Z,15.70
2023-05-09T23:31:27.223Z,15.70
2023-05-09T23:33:54.919Z,15.70
2023-05-09T23:36:22.215Z,15.70
2023-05-09T23:38:49.377Z,15.70
2023-05-09T23:41:16.583Z,15.70
2023-05-09T23:43:43.480Z,15.70
2023-05-09T23:46:10.795Z,15.70
2023-05-09T23:48:37.940Z,15.70
2023-05-09T23:51:05.134Z,15.70
2023-05-09T23:53:35.165Z,15.70
2023-05-09T23:56:03.098Z,15.70
2023-05-09T23:58:30.168Z,15.70
